»·PEaware :: SWA3534 KGEG-KDEN

SWA3534 :: KGEG-KDEN

FLIGHT INFORMATION

Flight Status: Arrived
Operator:
Southwest Airlines
More flights by this operator :: More flights under this callsign
Pilot: Tyler J. (19619)
Aircraft: BOEING 737-700
(B737)
More flights by this aircraft type
Origin: KGEG Spokane Intl
United States
Destination: KDEN Denver Intl
United States
More flights between these airports :: More routes between these airports
Route: GEG DLN CKW TSHNR2
File this flight plan on PilotEdge
Remarks:
Altitude:
(Current/Filed)
37,000ft
Speed:
(Current/Filed)
430kts
Departed: 10-Jul-18 07:28 AM
Arrived: 10-Jul-18 09:13 AM
Distance/Time
Traveled:
725nm/1:45
Distance/Time
To Go:
Arrived

Flight Plot

Page will automatically refresh every two minutes.

Flight plan parsing failed; only flown route is shown


Map Options




Map Legend


Flown Route
Filed Route
Departure Airport
Arrival Airport
Navaid (VOR, NDB)
Fix

Horizontal Profiles

Position Reports

Time Latitude Longitude Heading Altitude Ground
Speed
10-Jul-18 06:49 47.625336 -117.534308 2 2379ft 0kts
10-Jul-18 06:50 47.625336 -117.534308 2 2379ft 0kts
10-Jul-18 06:51 47.625336 -117.534308 2 2379ft 0kts
10-Jul-18 06:52 47.625336 -117.534308 2 2379ft 0kts
10-Jul-18 06:53 47.625336 -117.534308 2 2379ft 0kts
10-Jul-18 06:54 47.625336 -117.534308 2 2379ft 0kts
10-Jul-18 06:55 47.625336 -117.534308 2 2379ft 0kts
10-Jul-18 06:56 47.625336 -117.534308 2 2379ft 0kts
10-Jul-18 06:57 47.625336 -117.534308 2 2379ft 0kts
10-Jul-18 06:58 47.625336 -117.534308 2 2379ft 0kts
10-Jul-18 06:59 47.625336 -117.534308 2 2379ft 0kts
10-Jul-18 07:00 47.625336 -117.534308 2 2379ft 0kts
10-Jul-18 07:01 47.625336 -117.534308 2 2379ft 0kts
10-Jul-18 07:02 47.625336 -117.534308 2 2379ft 0kts
10-Jul-18 07:03 47.625336 -117.534308 2 2379ft 0kts
10-Jul-18 07:04 47.625336 -117.534308 2 2379ft 0kts
10-Jul-18 07:05 47.625336 -117.534308 2 2379ft 0kts
10-Jul-18 07:06 47.625336 -117.534308 2 2379ft 0kts
10-Jul-18 07:07 47.625336 -117.534308 2 2379ft 0kts
10-Jul-18 07:08 47.625336 -117.534308 2 2379ft 0kts
10-Jul-18 07:09 47.625336 -117.534308 2 2379ft 0kts
10-Jul-18 07:10 47.625336 -117.534308 2 2379ft 0kts
10-Jul-18 07:11 47.625336 -117.534308 2 2379ft 0kts
10-Jul-18 07:12 47.625336 -117.534308 2 2379ft 0kts
10-Jul-18 07:13 47.625336 -117.534308 2 2379ft 0kts
10-Jul-18 07:14 47.625336 -117.534308 2 2379ft 0kts
10-Jul-18 07:15 47.625336 -117.534308 2 2379ft 0kts
10-Jul-18 07:16 47.625336 -117.534308 2 2379ft 0kts
10-Jul-18 07:17 47.625335 -117.534308 2 2379ft 0kts
10-Jul-18 07:18 47.624751 -117.534451 35 2379ft 2kts
10-Jul-18 07:19 47.624579 -117.534670 44 2379ft 0kts
10-Jul-18 07:20 47.624580 -117.534668 44 2379ft 0kts
10-Jul-18 07:21 47.624581 -117.534666 44 2379ft 0kts
10-Jul-18 07:22 47.624583 -117.534664 44 2379ft 0kts
10-Jul-18 07:23 47.624584 -117.534663 44 2379ft 0kts
10-Jul-18 07:24 47.625311 -117.533576 45 2379ft 8kts
10-Jul-18 07:25 47.627192 -117.529001 44 2379ft 24kts
10-Jul-18 07:26 47.631620 -117.522323 43 2379ft 10kts
10-Jul-18 07:27 47.631763 -117.519528 135 2379ft 0kts
10-Jul-18 07:28 47.630857 -117.518858 225 2379ft 10kts
10-Jul-18 07:29 47.607591 -117.555068 225 3548ft 169kts
10-Jul-18 07:30 47.570978 -117.607629 219 5999ft 211kts
10-Jul-18 07:31 47.512217 -117.577759 123 8060ft 290kts
10-Jul-18 07:32 47.468655 -117.471854 124 11290ft 316kts
10-Jul-18 07:33 47.417596 -117.349136 123 13114ft 375kts
10-Jul-18 07:34 47.362072 -117.216319 124 15996ft 386kts
10-Jul-18 07:35 47.306483 -117.077323 124 18506ft 400kts
10-Jul-18 07:36 47.248537 -116.934766 127 20768ft 412kts
10-Jul-18 07:37 47.187910 -116.789635 128 22777ft 422kts
10-Jul-18 07:38 47.125126 -116.641015 128 24420ft 434kts
10-Jul-18 07:39 47.060247 -116.488244 129 25762ft 448kts
10-Jul-18 07:40 46.993123 -116.331114 129 26990ft 458kts
10-Jul-18 07:41 46.924464 -116.171267 129 28040ft 469kts
10-Jul-18 07:42 46.854307 -116.008359 128 29046ft 478kts
10-Jul-18 07:43 46.784157 -115.841655 129 29914ft 485kts
10-Jul-18 07:44 46.715396 -115.681586 129 30871ft 485kts
10-Jul-18 07:45 46.643804 -115.515044 128 32076ft 484kts
10-Jul-18 07:46 46.572865 -115.350207 128 33241ft 482kts
10-Jul-18 07:47 46.501502 -115.185304 129 34388ft 480kts
10-Jul-18 07:48 46.430362 -115.022458 129 35535ft 478kts
10-Jul-18 07:49 46.359268 -114.861071 130 36656ft 476kts
10-Jul-18 07:50 46.288418 -114.698747 132 37164ft 473kts
10-Jul-18 07:51 46.217368 -114.538181 130 37160ft 477kts
10-Jul-18 07:52 46.145112 -114.377720 130 37150ft 477kts
10-Jul-18 07:53 46.073432 -114.216624 130 37148ft 477kts
10-Jul-18 07:54 46.001123 -114.056285 130 37140ft 478kts
10-Jul-18 07:55 45.930283 -113.901136 130 37140ft 477kts
10-Jul-18 07:56 45.856893 -113.742044 130 37142ft 479kts
10-Jul-18 07:57 45.782739 -113.582733 130 37145ft 481kts
10-Jul-18 07:58 45.708538 -113.424685 130 37144ft 480kts
10-Jul-18 07:59 45.633193 -113.265305 130 37153ft 482kts
10-Jul-18 08:00 45.558069 -113.107416 130 37156ft 482kts
10-Jul-18 08:01 45.482446 -112.949666 130 37162ft 481kts
10-Jul-18 08:02 45.390658 -112.819782 149 37165ft 464kts
10-Jul-18 08:03 45.309411 -112.672164 129 37169ft 482kts
10-Jul-18 08:04 45.231385 -112.518855 137 37168ft 474kts
10-Jul-18 08:05 45.141815 -112.381237 138 37183ft 474kts
10-Jul-18 08:06 45.052560 -112.244761 138 37181ft 473kts
10-Jul-18 08:07 44.965804 -112.111494 138 37216ft 475kts
10-Jul-18 08:08 44.876192 -111.974138 137 37245ft 475kts
10-Jul-18 08:09 44.786356 -111.837420 137 37267ft 476kts
10-Jul-18 08:10 44.696450 -111.701348 137 37300ft 476kts
10-Jul-18 08:11 44.606003 -111.565191 137 37317ft 476kts
10-Jul-18 08:12 44.515498 -111.429569 137 37342ft 476kts
10-Jul-18 08:13 44.424741 -111.294260 136 37352ft 476kts
10-Jul-18 08:14 44.333889 -111.159464 137 37353ft 476kts
10-Jul-18 08:15 44.242767 -111.024928 137 37368ft 477kts
10-Jul-18 08:16 44.151694 -110.891108 137 37368ft 476kts
10-Jul-18 08:17 44.060116 -110.757199 136 37380ft 477kts
10-Jul-18 08:18 43.968458 -110.623805 137 37379ft 477kts
10-Jul-18 08:19 43.879318 -110.494691 136 37380ft 478kts
10-Jul-18 08:20 43.787434 -110.362223 136 37379ft 478kts
10-Jul-18 08:21 43.695082 -110.229706 137 37378ft 478kts
10-Jul-18 08:22 43.602690 -110.097759 137 37375ft 477kts
10-Jul-18 08:23 43.510355 -109.966514 137 37366ft 477kts
10-Jul-18 08:24 43.417778 -109.835540 137 37359ft 476kts
10-Jul-18 08:25 43.325139 -109.705087 136 37348ft 476kts
10-Jul-18 08:26 43.232589 -109.575368 136 37344ft 475kts
10-Jul-18 08:27 43.140111 -109.446335 136 37343ft 475kts
10-Jul-18 08:28 43.047192 -109.317287 136 37340ft 475kts
10-Jul-18 08:29 42.954215 -109.188748 136 37341ft 475kts
10-Jul-18 08:30 42.864067 -109.064678 136 37339ft 475kts
10-Jul-18 08:31 42.771070 -108.937257 137 37334ft 475kts
10-Jul-18 08:32 42.677756 -108.809979 137 37327ft 474kts
10-Jul-18 08:33 42.584472 -108.683313 137 37318ft 474kts
10-Jul-18 08:34 42.491081 -108.557068 137 37317ft 473kts
10-Jul-18 08:35 42.398319 -108.432229 137 37319ft 472kts
10-Jul-18 08:36 42.305132 -108.307369 137 37326ft 471kts
10-Jul-18 08:37 42.211734 -108.182773 136 37338ft 471kts
10-Jul-18 08:38 42.118416 -108.058826 136 37348ft 471kts
10-Jul-18 08:39 42.024767 -107.934975 136 37353ft 470kts
10-Jul-18 08:40 41.931642 -107.811938 136 37358ft 470kts
10-Jul-18 08:41 41.841813 -107.694302 136 37370ft 468kts
10-Jul-18 08:42 41.750268 -107.570300 129 37383ft 467kts
10-Jul-18 08:43 41.675215 -107.428142 125 37390ft 467kts
10-Jul-18 08:44 41.601122 -107.285692 125 37412ft 468kts
10-Jul-18 08:45 41.526446 -107.143176 125 37417ft 467kts
10-Jul-18 08:46 41.451278 -107.001020 125 37432ft 471kts
10-Jul-18 08:47 41.375784 -106.859140 125 37431ft 470kts
10-Jul-18 08:48 41.312219 -106.740289 125 37438ft 471kts
10-Jul-18 08:49 41.236214 -106.598565 125 37449ft 470kts
10-Jul-18 08:50 41.160853 -106.457142 125 37445ft 471kts
10-Jul-18 08:51 41.084604 -106.316257 125 37467ft 467kts
10-Jul-18 08:52 41.008882 -106.176308 125 37430ft 469kts
10-Jul-18 08:53 40.935852 -106.042056 125 34677ft 469kts
10-Jul-18 08:54 40.858835 -105.900794 126 31241ft 473kts
10-Jul-18 08:55 40.782669 -105.762536 126 28582ft 458kts
10-Jul-18 08:56 40.708863 -105.628724 125 25919ft 445kts
10-Jul-18 08:57 40.636678 -105.498742 126 23325ft 434kts
10-Jul-18 08:58 40.566588 -105.371699 126 20815ft 424kts
10-Jul-18 08:59 40.500362 -105.248891 121 19422ft 393kts
10-Jul-18 09:00 40.459697 -105.119949 111 17714ft 374kts
10-Jul-18 09:01 40.423775 -104.993385 112 15810ft 359kts
10-Jul-18 09:02 40.390242 -104.875286 111 14435ft 332kts
10-Jul-18 09:03 40.360442 -104.765290 113 13188ft 307kts
10-Jul-18 09:04 40.321304 -104.674870 157 11925ft 275kts
10-Jul-18 09:05 40.255654 -104.673402 190 11430ft 215kts
10-Jul-18 09:06 40.198575 -104.682003 185 10035ft 200kts
10-Jul-18 09:07 40.143619 -104.683849 182 8554ft 195kts
10-Jul-18 09:08 40.091324 -104.684781 182 7633ft 155kts
10-Jul-18 09:09 40.037672 -104.685435 180 8180ft 208kts
10-Jul-18 09:10 39.984900 -104.686131 180 6927ft 168kts
10-Jul-18 09:11 39.941961 -104.686271 180 6216ft 154kts
10-Jul-18 09:12 39.898883 -104.686817 181 5515ft 150kts
10-Jul-18 09:13 39.873440 -104.687223 180 5439ft 50kts
10-Jul-18 09:14 39.864513 -104.687086 147 5439ft 17kts
10-Jul-18 09:15 39.864875 -104.681155 85 5439ft 18kts
10-Jul-18 09:16 39.864422 -104.673864 115 5439ft 17kts
10-Jul-18 09:17 39.863495 -104.672590 182 5439ft 0kts
10-Jul-18 09:18 39.863495 -104.672590 182 5439ft 0kts
10-Jul-18 09:19 39.863495 -104.672590 182 5439ft 0kts
10-Jul-18 09:20 39.863495 -104.672590 182 5439ft 0kts
10-Jul-18 09:21 39.863495 -104.672590 182 5439ft 0kts
10-Jul-18 09:22 39.863495 -104.672590 182 5439ft 0kts
10-Jul-18 09:23 39.863495 -104.672590 182 5439ft 0kts
10-Jul-18 09:24 39.863495 -104.672590 182 5439ft 0kts
10-Jul-18 09:25 39.863495 -104.672590 182 5439ft 0kts
10-Jul-18 09:26 39.863495 -104.672590 182 5439ft 0kts
10-Jul-18 09:27 39.863495 -104.672590 182 5439ft 0kts

Navigation Log

Ident Type
Flight plan parsing failed, navigation log unavailable